sensor_id;sensor_type;location;lat;lon;timestamp;pressure;altitude;pressure_sealevel;temperature;humidity
70684;BME280;58263;48.146;11.440;2022-07-30T00:01:43;95732.69;;;18.47;79.73
70684;BME280;58263;48.146;11.440;2022-07-30T00:04:08;95727.84;;;18.44;79.58
70684;BME280;58263;48.146;11.440;2022-07-30T00:06:33;95725.41;;;18.37;79.50
70684;BME280;58263;48.146;11.440;2022-07-30T00:09:01;95713.97;;;18.45;79.92
70684;BME280;58263;48.146;11.440;2022-07-30T00:11:26;95720.47;;;18.44;79.28
70684;BME280;58263;48.146;11.440;2022-07-30T00:13:52;95715.63;;;18.41;79.52
70684;BME280;58263;48.146;11.440;2022-07-30T00:16:17;95721.03;;;18.46;78.91
70684;BME280;58263;48.146;11.440;2022-07-30T00:18:42;95715.59;;;18.46;78.59
70684;BME280;58263;48.146;11.440;2022-07-30T00:21:08;95707.66;;;18.50;78.90
70684;BME280;58263;48.146;11.440;2022-07-30T00:23:33;95707.69;;;18.45;78.36
70684;BME280;58263;48.146;11.440;2022-07-30T00:25:59;95713.34;;;18.58;78.06
70684;BME280;58263;48.146;11.440;2022-07-30T00:28:25;95712.00;;;18.56;78.40
70684;BME280;58263;48.146;11.440;2022-07-30T00:30:50;95716.41;;;18.41;78.60
70684;BME280;58263;48.146;11.440;2022-07-30T00:33:15;95712.81;;;18.51;78.51
70684;BME280;58263;48.146;11.440;2022-07-30T00:35:40;95704.44;;;18.48;77.06
70684;BME280;58263;48.146;11.440;2022-07-30T00:38:06;95712.34;;;18.44;78.54
70684;BME280;58263;48.146;11.440;2022-07-30T00:40:31;95699.91;;;18.38;78.87
70684;BME280;58263;48.146;11.440;2022-07-30T00:42:57;95705.28;;;18.43;78.78
70684;BME280;58263;48.146;11.440;2022-07-30T00:45:22;95709.63;;;18.44;78.88
70684;BME280;58263;48.146;11.440;2022-07-30T00:47:48;95712.88;;;18.46;78.33
70684;BME280;58263;48.146;11.440;2022-07-30T00:50:14;95710.22;;;18.36;78.49
70684;BME280;58263;48.146;11.440;2022-07-30T00:52:40;95704.47;;;18.42;78.11
70684;BME280;58263;48.146;11.440;2022-07-30T00:55:09;95695.56;;;18.37;78.17
70684;BME280;58263;48.146;11.440;2022-07-30T00:57:34;95699.91;;;18.33;77.66
70684;BME280;58263;48.146;11.440;2022-07-30T01:00:00;95703.22;;;18.30;76.78
70684;BME280;58263;48.146;11.440;2022-07-30T01:02:26;95708.63;;;18.30;77.29
70684;BME280;58263;48.146;11.440;2022-07-30T01:04:51;95708.06;;;18.33;78.09
70684;BME280;58263;48.146;11.440;2022-07-30T01:07:17;95701.59;;;18.23;77.28
70684;BME280;58263;48.146;11.440;2022-07-30T01:09:42;95701.84;;;18.27;76.65
70684;BME280;58263;48.146;11.440;2022-07-30T01:12:08;95698.34;;;18.21;76.98
70684;BME280;58263;48.146;11.440;2022-07-30T01:14:35;95694.56;;;18.17;77.10
70684;BME280;58263;48.146;11.440;2022-07-30T01:17:02;95698.59;;;18.25;76.40
70684;BME280;58263;48.146;11.440;2022-07-30T01:19:32;95699.47;;;18.15;77.75
70684;BME280;58263;48.146;11.440;2022-07-30T01:22:23;95694.03;;;18.15;77.61
70684;BME280;58263;48.146;11.440;2022-07-30T01:25:00;95691.06;;;18.12;76.11
70684;BME280;58263;48.146;11.440;2022-07-30T01:27:42;95694.59;;;18.12;78.04
70684;BME280;58263;48.146;11.440;2022-07-30T01:30:09;95690.75;;;18.18;77.36
70684;BME280;58263;48.146;11.440;2022-07-30T01:32:38;95688.13;;;18.08;77.73
70684;BME280;58263;48.146;11.440;2022-07-30T01:35:05;95694.09;;;18.05;75.81
70684;BME280;58263;48.146;11.440;2022-07-30T01:37:32;95691.13;;;18.06;77.81
70684;BME280;58263;48.146;11.440;2022-07-30T01:39:58;95700.16;;;17.92;76.88
70684;BME280;58263;48.146;11.440;2022-07-30T01:42:26;95691.66;;;17.98;77.84
70684;BME280;58263;48.146;11.440;2022-07-30T01:44:53;95684.88;;;18.01;77.31
70684;BME280;58263;48.146;11.440;2022-07-30T01:47:20;95685.41;;;18.03;76.42
70684;BME280;58263;48.146;11.440;2022-07-30T01:49:48;95690.03;;;18.02;76.63
70684;BME280;58263;48.146;11.440;2022-07-30T01:52:16;95692.72;;;18.02;77.30
70684;BME280;58263;48.146;11.440;2022-07-30T01:54:44;95687.28;;;18.07;77.60
70684;BME280;58263;48.146;11.440;2022-07-30T01:57:10;95688.13;;;18.08;76.38
70684;BME280;58263;48.146;11.440;2022-07-30T01:59:38;95686.00;;;18.00;76.04
70684;BME280;58263;48.146;11.440;2022-07-30T02:02:04;95682.69;;;18.08;76.91
70684;BME280;58263;48.146;11.440;2022-07-30T02:04:29;95687.34;;;17.97;75.74
70684;BME280;58263;48.146;11.440;2022-07-30T02:06:57;95684.34;;;17.99;76.69
70684;BME280;58263;48.146;11.440;2022-07-30T02:09:32;95686.00;;;18.00;76.71
70684;BME280;58263;48.146;11.440;2022-07-30T02:12:01;95688.16;;;17.98;76.49
70684;BME280;58263;48.146;11.440;2022-07-30T02:14:55;95685.41;;;18.03;77.25
70684;BME280;58263;48.146;11.440;2022-07-30T02:17:28;95694.06;;;18.10;76.46
70684;BME280;58263;48.146;11.440;2022-07-30T02:19:55;95689.47;;;18.05;75.93
70684;BME280;58263;48.146;11.440;2022-07-30T02:22:23;95687.06;;;17.99;77.19
70684;BME280;58263;48.146;11.440;2022-07-30T02:24:49;95684.34;;;17.99;76.13
70684;BME280;58263;48.146;11.440;2022-07-30T02:27:19;95683.78;;;18.02;76.02
70684;BME280;58263;48.146;11.440;2022-07-30T02:29:47;95689.53;;;17.95;76.03
70684;BME280;58263;48.146;11.440;2022-07-30T02:32:16;95692.50;;;17.88;76.42
70684;BME280;58263;48.146;11.440;2022-07-30T02:34:45;95689.00;;;17.93;76.21
70684;BME280;58263;48.146;11.440;2022-07-30T02:37:13;95700.66;;;17.99;76.00
70684;BME280;58263;48.146;11.440;2022-07-30T02:39:40;95701.22;;;17.96;76.77
70684;BME280;58263;48.146;11.440;2022-07-30T02:42:08;95700.66;;;17.99;76.76
70684;BME280;58263;48.146;11.440;2022-07-30T02:44:36;95697.09;;;18.03;75.85
70684;BME280;58263;48.146;11.440;2022-07-30T02:47:03;95694.13;;;18.00;76.96
70684;BME280;58263;48.146;11.440;2022-07-30T02:49:31;95690.09;;;17.92;76.60
70684;BME280;58263;48.146;11.440;2022-07-30T02:51:58;95686.00;;;18.00;75.30
70684;BME280;58263;48.146;11.440;2022-07-30T02:54:24;95683.50;;;18.03;75.92
70684;BME280;58263;48.146;11.440;2022-07-30T02:56:52;95682.16;;;18.01;76.15
70684;BME280;58263;48.146;11.440;2022-07-30T02:59:19;95680.56;;;18.00;75.17
70684;BME280;58263;48.146;11.440;2022-07-30T03:01:47;95680.00;;;18.03;75.04
70684;BME280;58263;48.146;11.440;2022-07-30T03:04:14;95682.16;;;18.01;75.89
70684;BME280;58263;48.146;11.440;2022-07-30T03:06:40;95678.38;;;18.02;74.85
70684;BME280;58263;48.146;11.440;2022-07-30T03:09:08;95682.72;;;17.98;74.55
70684;BME280;58263;48.146;11.440;2022-07-30T03:11:34;95680.28;;;18.01;75.10
70684;BME280;58263;48.146;11.440;2022-07-30T03:14:00;95676.69;;;18.11;74.55
70684;BME280;58263;48.146;11.440;2022-07-30T03:16:27;95679.44;;;18.06;74.67
70684;BME280;58263;48.146;11.440;2022-07-30T03:18:53;95679.69;;;18.10;74.46
70684;BME280;58263;48.146;11.440;2022-07-30T03:21:21;95669.72;;;18.00;74.96
70684;BME280;58263;48.146;11.440;2022-07-30T03:23:50;95675.38;;;17.98;74.82
70684;BME280;58263;48.146;11.440;2022-07-30T03:26:19;95671.88;;;17.98;74.76
70684;BME280;58263;48.146;11.440;2022-07-30T03:28:45;95670.19;;;18.07;75.39
70684;BME280;58263;48.146;11.440;2022-07-30T03:31:13;95672.66;;;18.03;74.04
70684;BME280;58263;48.146;11.440;2022-07-30T03:33:40;95675.09;;;18.05;74.20
70684;BME280;58263;48.146;11.440;2022-07-30T03:36:07;95672.16;;;17.96;74.70
70684;BME280;58263;48.146;11.440;2022-07-30T03:38:35;95677.00;;;18.04;74.35
70684;BME280;58263;48.146;11.440;2022-07-30T03:41:02;95684.28;;;18.09;74.58
70684;BME280;58263;48.146;11.440;2022-07-30T03:43:28;95679.41;;;18.11;74.84
70684;BME280;58263;48.146;11.440;2022-07-30T03:45:54;95681.34;;;18.05;74.95
70684;BME280;58263;48.146;11.440;2022-07-30T03:48:21;95688.91;;;18.08;74.68
70684;BME280;58263;48.146;11.440;2022-07-30T03:50:48;95689.72;;;18.09;75.08
70684;BME280;58263;48.146;11.440;2022-07-30T03:53:14;95689.97;;;18.13;73.98
70684;BME280;58263;48.146;11.440;2022-07-30T03:55:39;95692.97;;;18.11;74.83
70684;BME280;58263;48.146;11.440;2022-07-30T03:58:05;95704.41;;;18.08;75.79
70684;BME280;58263;48.146;11.440;2022-07-30T04:00:31;95705.47;;;18.12;74.06
70684;BME280;58263;48.146;11.440;2022-07-30T04:02:56;95707.06;;;18.13;74.94
70684;BME280;58263;48.146;11.440;2022-07-30T04:05:21;95721.47;;;18.19;73.48
70684;BME280;58263;48.146;11.440;2022-07-30T04:07:47;95716.28;;;18.17;74.15
70684;BME280;58263;48.146;11.440;2022-07-30T04:10:14;95721.47;;;18.14;73.58
70684;BME280;58263;48.146;11.440;2022-07-30T04:12:40;95726.63;;;18.15;74.50
70684;BME280;58263;48.146;11.440;2022-07-30T04:15:06;95728.00;;;18.13;73.83
70684;BME280;58263;48.146;11.440;2022-07-30T04:17:35;95733.13;;;18.14;73.14
70684;BME280;58263;48.146;11.440;2022-07-30T04:20:07;95740.47;;;18.14;74.21
70684;BME280;58263;48.146;11.440;2022-07-30T04:22:35;95738.28;;;18.16;74.32
70684;BME280;58263;48.146;11.440;2022-07-30T04:25:02;95735.03;;;18.19;73.33
70684;BME280;58263;48.146;11.440;2022-07-30T04:27:30;95746.16;;;18.17;72.87
70684;BME280;58263;48.146;11.440;2022-07-30T04:29:56;95752.69;;;18.11;72.95
70684;BME280;58263;48.146;11.440;2022-07-30T04:32:22;95751.56;;;18.17;74.22
70684;BME280;58263;48.146;11.440;2022-07-30T04:34:49;95761.91;;;18.15;73.77
70684;BME280;58263;48.146;11.440;2022-07-30T04:37:16;95750.75;;;18.22;73.48
70684;BME280;58263;48.146;11.440;2022-07-30T04:39:42;95760.53;;;18.23;73.52
70684;BME280;58263;48.146;11.440;2022-07-30T04:42:07;95754.56;;;18.16;73.78
70684;BME280;58263;48.146;11.440;2022-07-30T04:44:33;95756.50;;;18.10;74.85
70684;BME280;58263;48.146;11.440;2022-07-30T04:46:58;95757.34;;;18.11;73.69
70684;BME280;58263;48.146;11.440;2022-07-30T04:49:24;95759.97;;;18.21;73.34
70684;BME280;58263;48.146;11.440;2022-07-30T04:51:52;95766.47;;;18.30;73.51
70684;BME280;58263;48.146;11.440;2022-07-30T04:54:19;95762.94;;;18.30;72.89
70684;BME280;58263;48.146;11.440;2022-07-30T04:56:46;95761.34;;;18.23;72.95
70684;BME280;58263;48.146;11.440;2022-07-30T04:59:14;95768.13;;;18.26;72.61
70684;BME280;58263;48.146;11.440;2022-07-30T05:01:40;95761.28;;;18.34;73.38
70684;BME280;58263;48.146;11.440;2022-07-30T05:04:08;95766.47;;;18.30;72.61
70684;BME280;58263;48.146;11.440;2022-07-30T05:06:35;95764.03;;;18.29;72.08
70684;BME280;58263;48.146;11.440;2022-07-30T05:09:02;95767.25;;;18.31;72.69
70684;BME280;58263;48.146;11.440;2022-07-30T05:11:28;95766.16;;;18.37;72.07
70684;BME280;58263;48.146;11.440;2022-07-30T05:13:53;95762.91;;;18.35;71.60
70684;BME280;58263;48.146;11.440;2022-07-30T05:16:18;95763.97;;;18.39;71.80
70684;BME280;58263;48.146;11.440;2022-07-30T05:18:44;95765.59;;;18.40;72.95
70684;BME280;58263;48.146;11.440;2022-07-30T05:21:09;95773.72;;;18.45;72.07
70684;BME280;58263;48.146;11.440;2022-07-30T05:23:35;95772.06;;;18.49;72.70
70684;BME280;58263;48.146;11.440;2022-07-30T05:26:00;95778.88;;;18.41;71.92
70684;BME280;58263;48.146;11.440;2022-07-30T05:28:26;95780.50;;;18.48;71.58
70684;BME280;58263;48.146;11.440;2022-07-30T05:30:53;95782.38;;;18.47;72.42
70684;BME280;58263;48.146;11.440;2022-07-30T05:33:19;95784.50;;;18.55;72.08
70684;BME280;58263;48.146;11.440;2022-07-30T05:35:44;95782.25;;;18.68;71.42
70684;BME280;58263;48.146;11.440;2022-07-30T05:38:10;95788.84;;;18.62;70.84
70684;BME280;58263;48.146;11.440;2022-07-30T05:40:35;95794.28;;;18.56;72.10
70684;BME280;58263;48.146;11.440;2022-07-30T05:43:00;95793.22;;;18.57;70.59
70684;BME280;58263;48.146;11.440;2022-07-30T05:45:26;95792.94;;;18.54;71.09
70684;BME280;58263;48.146;11.440;2022-07-30T05:47:51;95784.25;;;18.57;71.22
70684;BME280;58263;48.146;11.440;2022-07-30T05:50:16;95793.25;;;18.47;71.09
70684;BME280;58263;48.146;11.440;2022-07-30T05:52:42;95792.72;;;18.50;71.64
70684;BME280;58263;48.146;11.440;2022-07-30T05:55:08;95798.44;;;18.49;70.97
70684;BME280;58263;48.146;11.440;2022-07-30T05:57:34;95796.25;;;18.46;71.28
70684;BME280;58263;48.146;11.440;2022-07-30T06:00:01;95798.19;;;18.40;71.13
70684;BME280;58263;48.146;11.440;2022-07-30T06:02:26;95798.16;;;18.50;70.58
70684;BME280;58263;48.146;11.440;2022-07-30T06:04:52;95806.03;;;18.47;71.20
70684;BME280;58263;48.146;11.440;2022-07-30T06:07:17;95813.84;;;18.58;71.18
70684;BME280;58263;48.146;11.440;2022-07-30T06:09:42;95814.34;;;18.71;71.24
70684;BME280;58263;48.146;11.440;2022-07-30T06:12:07;95812.41;;;18.71;70.58
70684;BME280;58263;48.146;11.440;2022-07-30T06:14:33;95818.09;;;18.80;71.32
70684;BME280;58263;48.146;11.440;2022-07-30T06:16:58;95821.31;;;18.92;70.27
70684;BME280;58263;48.146;11.440;2022-07-30T06:19:24;95812.09;;;18.78;70.75
70684;BME280;58263;48.146;11.440;2022-07-30T06:21:50;95815.41;;;18.75;71.16
70684;BME280;58263;48.146;11.440;2022-07-30T06:24:15;95821.59;;;18.86;70.03
70684;BME280;58263;48.146;11.440;2022-07-30T06:26:41;95826.72;;;18.87;69.77
70684;BME280;58263;48.146;11.440;2022-07-30T06:29:06;95823.47;;;18.85;69.75
70684;BME280;58263;48.146;11.440;2022-07-30T06:31:31;95835.16;;;18.86;70.44
70684;BME280;58263;48.146;11.440;2022-07-30T06:33:57;95836.25;;;18.95;70.04
70684;BME280;58263;48.146;11.440;2022-07-30T06:36:22;95835.41;;;18.95;70.29
70684;BME280;58263;48.146;11.440;2022-07-30T06:38:47;95840.06;;;18.89;70.09
70684;BME280;58263;48.146;11.440;2022-07-30T06:41:12;95841.97;;;18.88;70.56
70684;BME280;58263;48.146;11.440;2022-07-30T06:43:39;95837.53;;;19.03;70.09
70684;BME280;58263;48.146;11.440;2022-07-30T06:46:05;95846.66;;;19.22;70.58
70684;BME280;58263;48.146;11.440;2022-07-30T06:48:31;95847.47;;;19.23;69.52
70684;BME280;58263;48.146;11.440;2022-07-30T06:50:56;95843.03;;;19.32;69.32
70684;BME280;58263;48.146;11.440;2022-07-30T06:53:21;95850.22;;;19.52;68.49
70684;BME280;58263;48.146;11.440;2022-07-30T06:55:47;95850.13;;;19.63;67.66
70684;BME280;58263;48.146;11.440;2022-07-30T06:58:14;95846.81;;;19.66;67.82
70684;BME280;58263;48.146;11.440;2022-07-30T07:00:40;95848.63;;;19.81;67.05
70684;BME280;58263;48.146;11.440;2022-07-30T07:03:07;95847.16;;;19.93;66.09
70684;BME280;58263;48.146;11.440;2022-07-30T07:05:32;95856.03;;;20.29;66.18
70684;BME280;58263;48.146;11.440;2022-07-30T07:07:57;95857.56;;;20.40;65.76
70684;BME280;58263;48.146;11.440;2022-07-30T07:10:23;95857.94;;;20.52;64.38
70684;BME280;58263;48.146;11.440;2022-07-30T07:12:48;95863.47;;;20.71;64.59
70684;BME280;58263;48.146;11.440;2022-07-30T07:15:13;95852.88;;;21.08;64.73
70684;BME280;58263;48.146;11.440;2022-07-30T07:17:39;95858.03;;;21.28;63.55
70684;BME280;58263;48.146;11.440;2022-07-30T07:20:06;95859.56;;;21.35;62.56
70684;BME280;58263;48.146;11.440;2022-07-30T07:22:31;95849.84;;;21.28;61.98
70684;BME280;58263;48.146;11.440;2022-07-30T07:24:57;95850.19;;;21.60;61.91
70684;BME280;58263;48.146;11.440;2022-07-30T07:27:22;95852.53;;;21.67;60.18
70684;BME280;58263;48.146;11.440;2022-07-30T07:29:48;95853.28;;;21.86;60.59
70684;BME280;58263;48.146;11.440;2022-07-30T07:32:13;95860.03;;;21.75;60.14
70684;BME280;58263;48.146;11.440;2022-07-30T07:34:38;95857.28;;;22.08;60.84
70684;BME280;58263;48.146;11.440;2022-07-30T07:37:04;95853.53;;;22.32;59.46
70684;BME280;58263;48.146;11.440;2022-07-30T07:39:29;95850.94;;;22.54;58.80
70684;BME280;58263;48.146;11.440;2022-07-30T07:41:54;95857.59;;;22.76;60.34
70684;BME280;58263;48.146;11.440;2022-07-30T07:44:20;95851.13;;;22.72;58.02
70684;BME280;58263;48.146;11.440;2022-07-30T07:46:45;95858.19;;;22.87;58.09
70684;BME280;58263;48.146;11.440;2022-07-30T07:49:10;95851.00;;;22.91;56.61
70684;BME280;58263;48.146;11.440;2022-07-30T07:51:36;95842.41;;;23.20;56.75
70684;BME280;58263;48.146;11.440;2022-07-30T07:54:01;95853.50;;;23.38;55.89
70684;BME280;58263;48.146;11.440;2022-07-30T07:56:27;95851.72;;;23.56;55.00
70684;BME280;58263;48.146;11.440;2022-07-30T07:58:52;95851.59;;;23.61;54.11
70684;BME280;58263;48.146;11.440;2022-07-30T08:01:19;95851.91;;;23.59;53.48
70684;BME280;58263;48.146;11.440;2022-07-30T08:03:45;95852.78;;;23.69;53.93
70684;BME280;58263;48.146;11.440;2022-07-30T08:06:10;95843.69;;;23.82;53.02
70684;BME280;58263;48.146;11.440;2022-07-30T08:08:35;95842.25;;;23.85;52.29
70684;BME280;58263;48.146;11.440;2022-07-30T08:11:01;95846.84;;;23.98;52.41
70684;BME280;58263;48.146;11.440;2022-07-30T08:13:27;95852.03;;;23.77;51.85
70684;BME280;58263;48.146;11.440;2022-07-30T08:15:52;95859.63;;;24.03;51.60
70684;BME280;58263;48.146;11.440;2022-07-30T08:18:17;95852.31;;;24.29;51.42
70684;BME280;58263;48.146;11.440;2022-07-30T08:20:43;95856.91;;;24.11;50.54
70684;BME280;58263;48.146;11.440;2022-07-30T08:23:08;95854.28;;;24.06;51.01
70684;BME280;58263;48.146;11.440;2022-07-30T08:25:33;95861.31;;;24.21;51.53
70684;BME280;58263;48.146;11.440;2022-07-30T08:27:59;95849.66;;;24.16;51.46
70684;BME280;58263;48.146;11.440;2022-07-30T08:30:27;95853.84;;;24.13;51.47
70684;BME280;58263;48.146;11.440;2022-07-30T08:32:53;95858.53;;;24.12;51.41
70684;BME280;58263;48.146;11.440;2022-07-30T08:35:18;95852.47;;;23.93;50.88
70684;BME280;58263;48.146;11.440;2022-07-30T08:37:44;95846.81;;;24.29;49.48
70684;BME280;58263;48.146;11.440;2022-07-30T08:40:09;95851.81;;;24.68;51.67
70684;BME280;58263;48.146;11.440;2022-07-30T08:42:35;95854.56;;;24.68;49.58
70684;BME280;58263;48.146;11.440;2022-07-30T08:45:01;95856.22;;;24.86;49.00
70684;BME280;58263;48.146;11.440;2022-07-30T08:47:37;95858.38;;;25.07;48.44
70684;BME280;58263;48.146;11.440;2022-07-30T08:50:06;95848.88;;;25.30;47.50
70684;BME280;58263;48.146;11.440;2022-07-30T08:52:34;95846.75;;;25.27;47.51
70684;BME280;58263;48.146;11.440;2022-07-30T08:55:00;95854.34;;;25.65;47.20
70684;BME280;58263;48.146;11.440;2022-07-30T08:57:35;95852.44;;;25.48;46.29
70684;BME280;58263;48.146;11.440;2022-07-30T09:00:03;95855.34;;;25.61;46.92
70684;BME280;58263;48.146;11.440;2022-07-30T09:02:30;95849.31;;;25.85;45.48
70684;BME280;58263;48.146;11.440;2022-07-30T09:04:56;95857.03;;;26.01;46.06
70684;BME280;58263;48.146;11.440;2022-07-30T09:07:21;95867.22;;;26.09;45.77
70684;BME280;58263;48.146;11.440;2022-07-30T09:09:47;95857.19;;;26.13;43.17
70684;BME280;58263;48.146;11.440;2022-07-30T09:12:40;95861.41;;;25.93;44.10
70684;BME280;58263;48.146;11.440;2022-07-30T09:15:11;95870.66;;;26.06;43.88
70684;BME280;58263;48.146;11.440;2022-07-30T09:20:11;95860.84;;;26.73;43.02
70684;BME280;58263;48.146;11.440;2022-07-30T09:22:54;95858.66;;;26.02;43.85
70684;BME280;58263;48.146;11.440;2022-07-30T09:25:43;95863.25;;;25.62;44.27
70684;BME280;58263;48.146;11.440;2022-07-30T09:28:09;95857.06;;;25.83;43.92
70684;BME280;58263;48.146;11.440;2022-07-30T09:30:47;95870.34;;;25.81;44.63
70684;BME280;58263;48.146;11.440;2022-07-30T09:33:13;95866.78;;;25.80;44.92
70684;BME280;58263;48.146;11.440;2022-07-30T09:35:39;95865.78;;;26.03;42.83
70684;BME280;58263;48.146;11.440;2022-07-30T09:38:05;95862.19;;;26.11;42.30
70684;BME280;58263;48.146;11.440;2022-07-30T09:40:31;95852.97;;;26.54;43.33
70684;BME280;58263;48.146;11.440;2022-07-30T09:43:10;95859.81;;;26.48;41.54
70684;BME280;58263;48.146;11.440;2022-07-30T09:45:36;95851.47;;;26.36;40.88
70684;BME280;58263;48.146;11.440;2022-07-30T09:48:21;95858.06;;;26.82;42.45
70684;BME280;58263;48.146;11.440;2022-07-30T09:50:48;95848.84;;;26.78;40.56
70684;BME280;58263;48.146;11.440;2022-07-30T09:53:13;95862.78;;;27.03;39.47
70684;BME280;58263;48.146;11.440;2022-07-30T09:55:39;95856.88;;;26.92;39.85
70684;BME280;58263;48.146;11.440;2022-07-30T09:58:05;95853.28;;;26.91;40.71
70684;BME280;58263;48.146;11.440;2022-07-30T10:00:34;95859.66;;;26.83;40.53
70684;BME280;58263;48.146;11.440;2022-07-30T10:03:01;95856.13;;;27.04;41.16
70684;BME280;58263;48.146;11.440;2022-07-30T10:05:38;95850.63;;;26.44;39.10
70684;BME280;58263;48.146;11.440;2022-07-30T10:08:12;95851.22;;;26.88;38.24
70684;BME280;58263;48.146;11.440;2022-07-30T10:10:38;95852.56;;;27.03;38.03
70684;BME280;58263;48.146;11.440;2022-07-30T10:13:03;95849.41;;;27.43;37.86
70684;BME280;58263;48.146;11.440;2022-07-30T10:15:35;95854.03;;;27.52;38.53
70684;BME280;58263;48.146;11.440;2022-07-30T10:18:02;95846.91;;;27.51;38.56
70684;BME280;58263;48.146;11.440;2022-07-30T10:20:28;95845.13;;;27.46;37.32
70684;BME280;58263;48.146;11.440;2022-07-30T10:22:54;95848.91;;;27.62;37.00
70684;BME280;58263;48.146;11.440;2022-07-30T10:25:22;95854.94;;;28.10;35.19
70684;BME280;58263;48.146;11.440;2022-07-30T10:27:48;95846.75;;;28.02;34.56
70684;BME280;58263;48.146;11.440;2022-07-30T10:30:14;95849.41;;;27.43;35.22
70684;BME280;58263;48.146;11.440;2022-07-30T10:32:40;95855.41;;;27.58;38.26
70684;BME280;58263;48.146;11.440;2022-07-30T10:35:07;95855.97;;;27.51;37.92
70684;BME280;58263;48.146;11.440;2022-07-30T10:37:33;95855.41;;;27.79;36.46
70684;BME280;58263;48.146;11.440;2022-07-30T10:40:05;95844.47;;;28.04;34.62
70684;BME280;58263;48.146;11.440;2022-07-30T10:45:16;95846.13;;;28.54;34.88
70684;BME280;58263;48.146;11.440;2022-07-30T10:47:48;95847.88;;;28.83;34.22
70684;BME280;58263;48.146;11.440;2022-07-30T10:50:16;95846.38;;;28.49;33.38
70684;BME280;58263;48.146;11.440;2022-07-30T10:52:56;95859.84;;;28.88;32.84
70684;BME280;58263;48.146;11.440;2022-07-30T10:55:24;95845.91;;;29.09;33.00
70684;BME280;58263;48.146;11.440;2022-07-30T10:58:10;95846.00;;;28.50;33.27
70684;BME280;58263;48.146;11.440;2022-07-30T11:03:20;95858.16;;;28.12;34.27
70684;BME280;58263;48.146;11.440;2022-07-30T11:08:38;95858.56;;;27.69;35.08
70684;BME280;58263;48.146;11.440;2022-07-30T11:13:58;95860.28;;;28.28;34.51
70684;BME280;58263;48.146;11.440;2022-07-30T11:17:05;95849.13;;;28.37;33.88
70684;BME280;58263;48.146;11.440;2022-07-30T11:19:30;95856.41;;;28.66;34.53
70684;BME280;58263;48.146;11.440;2022-07-30T11:24:47;95846.38;;;28.61;33.12
70684;BME280;58263;48.146;11.440;2022-07-30T11:30:05;95852.75;;;28.16;32.97
70684;BME280;58263;48.146;11.440;2022-07-30T11:32:33;95851.84;;;27.91;33.75
70684;BME280;58263;48.146;11.440;2022-07-30T11:45:49;95848.00;;;26.47;36.85
70684;BME280;58263;48.146;11.440;2022-07-30T11:48:17;95856.59;;;26.46;38.66
70684;BME280;58263;48.146;11.440;2022-07-30T11:50:45;95856.00;;;26.31;38.12
70684;BME280;58263;48.146;11.440;2022-07-30T11:53:16;95858.38;;;26.80;37.19
70684;BME280;58263;48.146;11.440;2022-07-30T11:55:48;95857.56;;;27.31;35.68
70684;BME280;58263;48.146;11.440;2022-07-30T11:58:35;95849.91;;;27.15;34.58
70684;BME280;58263;48.146;11.440;2022-07-30T12:01:03;95867.63;;;27.06;34.61
70684;BME280;58263;48.146;11.440;2022-07-30T12:03:30;95856.53;;;26.93;35.52
70684;BME280;58263;48.146;11.440;2022-07-30T12:06:02;95852.53;;;26.52;35.18
70684;BME280;58263;48.146;11.440;2022-07-30T12:08:28;95847.69;;;26.79;36.15
70684;BME280;58263;48.146;11.440;2022-07-30T12:10:57;95852.59;;;27.24;34.53
70684;BME280;58263;48.146;11.440;2022-07-30T12:13:23;95841.63;;;27.79;32.86
70684;BME280;58263;48.146;11.440;2022-07-30T12:15:48;95847.13;;;28.25;33.20
70684;BME280;58263;48.146;11.440;2022-07-30T12:18:23;95843.59;;;28.49;32.62
70684;BME280;58263;48.146;11.440;2022-07-30T12:21:00;95846.84;;;27.72;31.66
70684;BME280;58263;48.146;11.440;2022-07-30T12:23:28;95841.13;;;27.77;32.09
70684;BME280;58263;48.146;11.440;2022-07-30T12:25:54;95844.81;;;27.81;30.75
70684;BME280;58263;48.146;11.440;2022-07-30T12:28:27;95844.75;;;27.90;31.57
70684;BME280;58263;48.146;11.440;2022-07-30T12:30:54;95846.66;;;27.77;31.45
70684;BME280;58263;48.146;11.440;2022-07-30T12:33:20;95845.00;;;27.63;31.77
70684;BME280;58263;48.146;11.440;2022-07-30T12:35:56;95846.59;;;27.86;31.54
70684;BME280;58263;48.146;11.440;2022-07-30T12:38:23;95849.59;;;27.93;30.88
70684;BME280;58263;48.146;11.440;2022-07-30T12:40:50;95839.19;;;28.11;30.94
70684;BME280;58263;48.146;11.440;2022-07-30T12:43:15;95847.63;;;28.27;30.45
70684;BME280;58263;48.146;11.440;2022-07-30T12:45:41;95854.06;;;28.56;31.15
70684;BME280;58263;48.146;11.440;2022-07-30T12:48:11;95843.03;;;28.56;30.90
70684;BME280;58263;48.146;11.440;2022-07-30T12:50:36;95845.13;;;28.71;29.68
70684;BME280;58263;48.146;11.440;2022-07-30T12:53:03;95836.00;;;29.08;31.03
70684;BME280;58263;48.146;11.440;2022-07-30T12:55:33;95844.06;;;29.13;29.88
70684;BME280;58263;48.146;11.440;2022-07-30T12:58:04;95842.19;;;29.29;29.11
70684;BME280;58263;48.146;11.440;2022-07-30T13:03:19;95838.53;;;29.13;30.22
70684;BME280;58263;48.146;11.440;2022-07-30T13:05:46;95840.72;;;29.60;30.22
70684;BME280;58263;48.146;11.440;2022-07-30T13:08:12;95839.94;;;29.47;29.71
70684;BME280;58263;48.146;11.440;2022-07-30T13:10:37;95838.56;;;29.82;29.27
70684;BME280;58263;48.146;11.440;2022-07-30T13:13:03;95834.84;;;29.90;28.56
70684;BME280;58263;48.146;11.440;2022-07-30T13:15:28;95837.63;;;29.90;28.58
70684;BME280;58263;48.146;11.440;2022-07-30T13:17:54;95840.09;;;29.95;28.40
70684;BME280;58263;48.146;11.440;2022-07-30T13:20:19;95840.41;;;29.78;27.75
70684;BME280;58263;48.146;11.440;2022-07-30T13:22:45;95838.16;;;29.96;27.50
70684;BME280;58263;48.146;11.440;2022-07-30T13:25:11;95835.69;;;30.07;27.05